createdAt,value
2023-05-04T00:02:22.033Z,8.93
2023-05-04T00:04:48.500Z,8.61
2023-05-04T00:07:14.946Z,8.56
2023-05-04T00:09:41.605Z,8.81
2023-05-04T00:12:08.224Z,8.83
2023-05-04T00:14:35.079Z,8.74
2023-05-04T00:17:02.982Z,8.75
2023-05-04T00:19:29.372Z,8.73
2023-05-04T00:21:55.910Z,8.61
2023-05-04T00:24:22.309Z,8.62
2023-05-04T00:26:48.768Z,8.64
2023-05-04T00:29:15.164Z,8.58
2023-05-04T00:31:41.680Z,8.38
2023-05-04T00:34:08.633Z,8.53
2023-05-04T00:36:35.343Z,8.52
2023-05-04T00:39:01.742Z,8.64
2023-05-04T00:41:28.104Z,8.53
2023-05-04T00:43:54.479Z,8.63
2023-05-04T00:46:20.903Z,8.61
2023-05-04T00:48:48.951Z,8.61
2023-05-04T00:51:16.650Z,8.37
2023-05-04T00:53:43.313Z,8.49
2023-05-04T00:56:10.259Z,8.35
2023-05-04T00:58:36.866Z,8.31
2023-05-04T01:01:03.766Z,8.34
2023-05-04T01:03:31.433Z,8.36
2023-05-04T01:06:19.620Z,8.41
2023-05-04T01:08:55.557Z,8.27
2023-05-04T01:11:27.807Z,8.21
2023-05-04T01:13:54.133Z,8.04
2023-05-04T01:16:20.783Z,7.79
2023-05-04T01:18:47.261Z,7.67
2023-05-04T01:21:13.637Z,7.64
2023-05-04T01:23:40.109Z,7.62
2023-05-04T01:26:27.800Z,7.59
2023-05-04T01:29:32.203Z,7.82
2023-05-04T01:31:59.862Z,7.74
2023-05-04T01:34:26.419Z,7.74
2023-05-04T01:36:52.922Z,7.64
2023-05-04T01:39:19.302Z,7.48
2023-05-04T01:41:45.663Z,7.49
2023-05-04T01:44:12.132Z,7.38
2023-05-04T01:46:38.564Z,7.57
2023-05-04T01:49:05.049Z,7.49
2023-05-04T01:51:31.499Z,7.41
2023-05-04T01:53:57.880Z,7.39
2023-05-04T01:56:24.256Z,7.21
2023-05-04T01:58:50.635Z,7.40
2023-05-04T02:01:17.071Z,7.34
2023-05-04T02:03:44.447Z,7.59
2023-05-04T02:06:11.071Z,7.56
2023-05-04T02:08:37.970Z,7.62
2023-05-04T02:11:04.371Z,7.78
2023-05-04T02:13:31.272Z,7.89
2023-05-04T02:15:57.702Z,8.00
2023-05-04T02:18:24.207Z,7.92
2023-05-04T02:20:50.657Z,7.92
2023-05-04T02:23:17.075Z,7.87
2023-05-04T02:25:43.472Z,7.76
2023-05-04T02:28:09.860Z,7.70
2023-05-04T02:30:36.250Z,7.56
2023-05-04T02:33:02.726Z,7.37
2023-05-04T02:35:29.565Z,7.54
2023-05-04T02:37:55.988Z,7.41
2023-05-04T02:40:22.398Z,7.48
2023-05-04T02:42:48.934Z,7.42
2023-05-04T02:45:15.500Z,7.43
2023-05-04T02:47:42.044Z,7.44
2023-05-04T02:50:08.930Z,7.55
2023-05-04T02:52:35.485Z,7.50
2023-05-04T02:55:03.140Z,7.65
2023-05-04T02:57:29.531Z,7.60
2023-05-04T02:59:56.023Z,7.68
2023-05-04T03:02:22.513Z,7.62
2023-05-04T03:04:48.902Z,7.71
2023-05-04T03:07:15.326Z,7.61
2023-05-04T03:09:41.745Z,7.61
2023-05-04T03:12:08.124Z,7.62
2023-05-04T03:14:34.510Z,7.75
2023-05-04T03:17:00.959Z,7.79
2023-05-04T03:19:27.358Z,7.59
2023-05-04T03:21:53.709Z,7.67
2023-05-04T03:24:20.166Z,7.68
2023-05-04T03:26:47.187Z,7.83
2023-05-04T03:29:13.661Z,7.57
2023-05-04T03:31:40.197Z,7.65
2023-05-04T03:34:06.720Z,7.60
2023-05-04T03:36:33.130Z,7.60
2023-05-04T03:38:59.523Z,7.53
2023-05-04T03:41:25.885Z,7.55
2023-05-04T03:43:52.316Z,7.42
2023-05-04T03:46:18.740Z,7.59
2023-05-04T03:48:45.232Z,7.60
2023-05-04T03:51:11.640Z,7.40
2023-05-04T03:53:38.024Z,7.47
2023-05-04T03:56:04.482Z,7.39
2023-05-04T03:58:31.004Z,7.32
2023-05-04T04:00:57.493Z,7.43
2023-05-04T04:03:24.035Z,7.42
2023-05-04T04:05:50.794Z,7.53
2023-05-04T04:08:17.292Z,7.48
2023-05-04T04:10:43.681Z,7.55
2023-05-04T04:13:10.191Z,7.46
2023-05-04T04:15:36.733Z,7.36
2023-05-04T04:18:03.197Z,7.52
2023-05-04T04:20:29.648Z,7.49
2023-05-04T04:22:56.238Z,7.63
2023-05-04T04:25:23.182Z,7.42
2023-05-04T04:27:49.650Z,7.47
2023-05-04T04:30:16.650Z,7.50
2023-05-04T04:32:43.148Z,7.52
2023-05-04T04:35:09.751Z,7.47
2023-05-04T04:37:36.108Z,7.59
2023-05-04T04:40:03.862Z,7.64
2023-05-04T04:42:30.496Z,7.60
2023-05-04T04:44:57.092Z,7.50
2023-05-04T04:47:23.482Z,7.59
2023-05-04T04:49:49.912Z,7.61
2023-05-04T04:52:17.159Z,7.62
2023-05-04T04:54:45.118Z,7.40
2023-05-04T04:57:11.524Z,7.29
2023-05-04T04:59:38.082Z,7.37
2023-05-04T05:02:04.477Z,7.37
2023-05-04T05:04:31.214Z,7.40
2023-05-04T05:06:57.643Z,7.64
2023-05-04T05:09:24.051Z,7.60
2023-05-04T05:11:50.434Z,7.55
2023-05-04T05:14:16.822Z,7.57
2023-05-04T05:16:43.269Z,7.65
2023-05-04T05:19:09.658Z,7.64
2023-05-04T05:21:36.050Z,7.65
2023-05-04T05:24:02.730Z,7.43
2023-05-04T05:26:29.398Z,7.37
2023-05-04T05:28:55.997Z,7.28
2023-05-04T05:31:22.483Z,7.38
2023-05-04T05:33:48.906Z,7.20
2023-05-04T05:36:15.331Z,7.42
2023-05-04T05:38:41.777Z,7.35
2023-05-04T05:41:09.587Z,7.65
2023-05-04T05:43:38.433Z,8.08
2023-05-04T05:46:06.285Z,8.01
2023-05-04T05:48:33.135Z,7.98
2023-05-04T05:50:59.722Z,8.24
2023-05-04T05:53:26.207Z,8.50
2023-05-04T05:55:52.580Z,8.43
2023-05-04T05:58:19.000Z,8.76
2023-05-04T06:00:46.178Z,8.55
2023-05-04T06:03:12.630Z,8.74
2023-05-04T06:05:39.066Z,8.71
2023-05-04T06:08:05.621Z,8.92
2023-05-04T06:10:32.027Z,9.03
2023-05-04T06:12:58.546Z,9.33
2023-05-04T06:15:24.941Z,9.51
2023-05-04T06:17:51.395Z,9.30
2023-05-04T06:20:18.098Z,9.54
2023-05-04T06:22:44.458Z,9.85
2023-05-04T06:25:11.495Z,9.83
2023-05-04T06:27:37.882Z,9.89
2023-05-04T06:30:05.422Z,9.96
2023-05-04T06:32:32.138Z,9.94
2023-05-04T06:34:59.401Z,10.02
2023-05-04T06:37:26.663Z,10.21
2023-05-04T06:39:53.924Z,10.17
2023-05-04T06:42:20.902Z,10.32
2023-05-04T06:44:47.454Z,10.77
2023-05-04T06:47:15.537Z,10.80
2023-05-04T06:49:41.928Z,11.08
2023-05-04T06:52:08.454Z,11.10
2023-05-04T06:54:35.629Z,11.19
2023-05-04T06:57:03.247Z,11.11
2023-05-04T06:59:29.633Z,10.95
2023-05-04T07:01:56.239Z,10.98
2023-05-04T07:04:23.432Z,11.28
2023-05-04T07:06:50.569Z,11.42
2023-05-04T07:09:18.785Z,11.41
2023-05-04T07:11:45.348Z,11.41
2023-05-04T07:14:11.933Z,11.78
2023-05-04T07:16:38.588Z,11.86
2023-05-04T07:19:05.211Z,11.88
2023-05-04T07:21:31.773Z,12.21
2023-05-04T07:23:58.253Z,11.95
2023-05-04T07:26:24.656Z,12.29
2023-05-04T07:28:51.050Z,12.23
2023-05-04T07:31:17.466Z,12.09
2023-05-04T07:33:43.939Z,12.27
2023-05-04T07:36:10.380Z,12.38
2023-05-04T07:38:36.869Z,12.27
2023-05-04T07:41:03.247Z,12.66
2023-05-04T07:43:29.717Z,12.81
2023-05-04T07:45:56.519Z,12.69
2023-05-04T07:48:25.236Z,12.86
2023-05-04T07:50:53.801Z,12.90
2023-05-04T07:53:25.645Z,13.33
2023-05-04T07:55:54.181Z,13.47
2023-05-04T07:58:20.727Z,13.37
2023-05-04T08:00:47.190Z,13.53
2023-05-04T08:03:13.709Z,13.93
2023-05-04T08:05:40.100Z,13.68
2023-05-04T08:08:08.339Z,13.70
2023-05-04T08:10:38.069Z,13.94
2023-05-04T08:13:05.261Z,13.94
2023-05-04T08:15:31.780Z,14.16
2023-05-04T08:17:58.237Z,14.06
2023-05-04T08:20:24.645Z,14.42
2023-05-04T08:22:51.115Z,14.58
2023-05-04T08:25:18.064Z,14.76
2023-05-04T08:27:45.636Z,14.79
2023-05-04T08:30:12.435Z,14.75
2023-05-04T08:32:39.049Z,15.31
2023-05-04T08:35:06.127Z,15.53
2023-05-04T08:37:32.685Z,15.57
2023-05-04T08:39:59.159Z,15.47
2023-05-04T08:42:32.843Z,15.50
2023-05-04T08:44:59.591Z,15.85
2023-05-04T08:47:27.274Z,16.02
2023-05-04T08:49:54.336Z,15.67
2023-05-04T08:52:25.281Z,15.70
2023-05-04T08:54:55.384Z,16.05
2023-05-04T08:57:23.244Z,16.38
2023-05-04T08:59:54.621Z,16.43
2023-05-04T09:02:22.484Z,16.65
2023-05-04T09:04:49.921Z,16.70
2023-05-04T09:07:17.990Z,16.74
2023-05-04T09:09:44.399Z,16.78
2023-05-04T09:12:10.790Z,16.81
2023-05-04T09:14:37.246Z,16.53
2023-05-04T09:17:04.322Z,17.00
2023-05-04T09:19:34.491Z,17.20
2023-05-04T09:22:01.499Z,17.57
2023-05-04T09:24:28.528Z,17.63
2023-05-04T09:26:55.315Z,17.71
2023-05-04T09:29:23.917Z,17.53
2023-05-04T09:31:51.525Z,18.01
2023-05-04T09:34:20.348Z,17.70
2023-05-04T09:37:01.573Z,17.99
2023-05-04T09:39:28.068Z,18.17
2023-05-04T09:41:55.174Z,18.29
2023-05-04T09:44:22.909Z,18.54
2023-05-04T09:46:56.964Z,18.42
2023-05-04T09:49:33.084Z,18.71
2023-05-04T09:52:03.352Z,18.80
2023-05-04T09:54:34.896Z,18.64
2023-05-04T09:57:12.908Z,19.01
2023-05-04T09:59:39.884Z,19.22
2023-05-04T10:02:18.138Z,19.40
2023-05-04T10:04:50.449Z,19.78
2023-05-04T10:07:17.149Z,19.70
2023-05-04T10:09:43.678Z,19.74
2023-05-04T10:12:10.037Z,19.33
2023-05-04T10:14:36.632Z,19.42
2023-05-04T10:17:26.341Z,19.51
2023-05-04T10:20:04.788Z,19.86
2023-05-04T10:22:53.248Z,20.01
2023-05-04T10:25:44.140Z,20.39
2023-05-04T10:28:41.496Z,20.55
2023-05-04T10:31:08.223Z,21.23
2023-05-04T10:33:42.526Z,20.80
2023-05-04T10:36:09.789Z,20.85
2023-05-04T10:38:37.338Z,20.68
2023-05-04T10:41:17.193Z,20.82
2023-05-04T10:43:48.629Z,20.90
2023-05-04T10:46:21.526Z,20.92
2023-05-04T10:48:48.532Z,21.93
2023-05-04T10:51:22.356Z,22.54
2023-05-04T10:53:48.828Z,22.54
2023-05-04T10:56:27.908Z,22.40
2023-05-04T10:58:54.908Z,21.97
2023-05-04T11:01:21.921Z,22.02
2023-05-04T11:03:49.035Z,21.88
2023-05-04T11:06:23.959Z,22.18
2023-05-04T11:09:01.722Z,22.90
2023-05-04T11:11:28.095Z,23.50
2023-05-04T11:13:54.724Z,23.60
2023-05-04T11:16:25.632Z,23.52
2023-05-04T11:18:53.512Z,22.50
2023-05-04T11:21:38.156Z,22.75
2023-05-04T11:24:04.818Z,22.51
2023-05-04T11:26:31.225Z,23.11
2023-05-04T11:28:57.722Z,23.34
2023-05-04T11:31:24.175Z,24.06
2023-05-04T11:33:52.267Z,23.86
2023-05-04T11:36:19.505Z,23.81
2023-05-04T11:38:46.003Z,23.21
2023-05-04T11:41:12.936Z,23.42
2023-05-04T11:43:42.163Z,23.50
2023-05-04T11:46:09.134Z,23.51
2023-05-04T11:48:35.736Z,24.49
2023-05-04T11:51:02.604Z,24.78
2023-05-04T11:53:37.385Z,23.85
2023-05-04T11:56:04.098Z,23.82
2023-05-04T11:58:30.784Z,24.57
2023-05-04T12:00:58.096Z,24.62
2023-05-04T12:03:39.787Z,24.44
2023-05-04T12:06:16.353Z,25.08
2023-05-04T12:08:43.307Z,25.36
2023-05-04T12:11:13.568Z,25.88
2023-05-04T12:13:40.881Z,26.40
2023-05-04T12:16:15.738Z,26.26
2023-05-04T12:18:44.275Z,25.44
2023-05-04T12:21:18.505Z,26.25
2023-05-04T12:23:46.192Z,26.14
2023-05-04T12:26:13.194Z,26.00
2023-05-04T12:28:40.716Z,25.54
2023-05-04T12:31:07.234Z,26.62
2023-05-04T12:33:34.324Z,27.44
2023-05-04T12:36:01.561Z,27.39
2023-05-04T12:38:28.744Z,28.19
2023-05-04T12:40:58.708Z,28.16
2023-05-04T12:43:25.219Z,26.37
2023-05-04T12:45:52.844Z,27.24
2023-05-04T12:48:20.792Z,25.55
2023-05-04T12:50:51.070Z,25.91
2023-05-04T12:53:18.299Z,26.09
2023-05-04T12:55:45.037Z,26.52
2023-05-04T12:58:11.422Z,27.82
2023-05-04T13:00:38.673Z,28.34
2023-05-04T13:03:05.804Z,26.59
2023-05-04T13:05:32.296Z,25.39
2023-05-04T13:07:59.022Z,27.94
2023-05-04T13:10:25.618Z,28.56
2023-05-04T13:12:52.092Z,28.63
2023-05-04T13:15:18.565Z,26.67
2023-05-04T13:17:45.044Z,26.89
2023-05-04T13:20:12.148Z,27.27
2023-05-04T13:22:39.094Z,28.37
2023-05-04T13:25:06.452Z,28.68
2023-05-04T13:27:33.306Z,28.90
2023-05-04T13:30:02.854Z,28.92
2023-05-04T13:32:30.249Z,29.50
2023-05-04T13:34:56.965Z,30.94
2023-05-04T13:37:23.441Z,28.16
2023-05-04T13:39:49.889Z,26.53
2023-05-04T13:42:16.277Z,27.13
2023-05-04T13:44:45.152Z,28.00
2023-05-04T13:47:16.047Z,28.88
2023-05-04T13:49:42.627Z,28.82
2023-05-04T13:52:09.099Z,28.39
2023-05-04T13:54:36.250Z,29.87
2023-05-04T13:57:02.837Z,29.66
2023-05-04T13:59:29.643Z,29.36
2023-05-04T14:01:56.646Z,30.66
2023-05-04T14:04:23.452Z,28.26
2023-05-04T14:06:50.743Z,27.90
2023-05-04T14:09:18.273Z,29.67
2023-05-04T14:11:45.727Z,29.92
2023-05-04T14:14:12.262Z,29.75
2023-05-04T14:16:39.034Z,29.84
2023-05-04T14:19:05.530Z,29.83
2023-05-04T14:21:31.921Z,30.56
2023-05-04T14:23:58.315Z,30.67
2023-05-04T14:26:24.691Z,31.62
2023-05-04T14:28:51.094Z,28.60
2023-05-04T14:31:17.540Z,28.78
2023-05-04T14:33:43.935Z,28.26
2023-05-04T14:36:11.052Z,29.40
2023-05-04T14:38:37.515Z,29.16
2023-05-04T14:41:04.876Z,29.93
2023-05-04T14:43:31.397Z,30.41
2023-05-04T14:46:00.757Z,29.25
2023-05-04T14:48:27.552Z,29.56
2023-05-04T14:50:54.956Z,28.94
2023-05-04T14:53:24.423Z,27.68
2023-05-04T14:55:50.995Z,27.22
2023-05-04T14:58:18.042Z,27.66
2023-05-04T15:00:45.313Z,27.85
2023-05-04T15:03:11.989Z,27.85
2023-05-04T15:05:38.465Z,28.76
2023-05-04T15:08:05.238Z,28.73
2023-05-04T15:10:31.614Z,28.36
2023-05-04T15:12:59.689Z,28.28
2023-05-04T15:15:26.202Z,29.02
2023-05-04T15:17:52.681Z,29.47
2023-05-04T15:20:19.088Z,29.73
2023-05-04T15:22:53.723Z,29.70
2023-05-04T15:25:23.674Z,28.37
2023-05-04T15:27:50.081Z,28.11
2023-05-04T15:30:16.680Z,27.96
2023-05-04T15:32:43.077Z,26.67
2023-05-04T15:35:09.610Z,26.68
2023-05-04T15:37:36.244Z,27.53
2023-05-04T15:40:04.291Z,29.47
2023-05-04T15:42:30.981Z,28.62
2023-05-04T15:44:57.369Z,30.15
2023-05-04T15:47:23.780Z,30.16
2023-05-04T15:49:50.170Z,30.31
2023-05-04T15:52:16.612Z,29.27
2023-05-04T15:54:43.393Z,28.59
2023-05-04T15:57:09.866Z,28.82
2023-05-04T15:59:36.224Z,28.91
2023-05-04T16:02:05.653Z,29.03
2023-05-04T16:04:32.110Z,28.83
2023-05-04T16:06:58.493Z,28.95
2023-05-04T16:09:26.913Z,28.25
2023-05-04T16:11:53.314Z,28.34
2023-05-04T16:14:19.750Z,27.20
2023-05-04T16:16:46.151Z,27.69
2023-05-04T16:19:12.668Z,27.80
2023-05-04T16:21:39.031Z,27.14
2023-05-04T16:24:07.491Z,26.80
2023-05-04T16:26:33.861Z,27.02
2023-05-04T16:29:00.521Z,27.41
2023-05-04T16:31:27.024Z,27.29
2023-05-04T16:33:53.470Z,27.00
2023-05-04T16:36:19.849Z,26.48
2023-05-04T16:38:47.868Z,26.76
2023-05-04T16:41:14.299Z,26.66
2023-05-04T16:43:40.692Z,26.43
2023-05-04T16:46:07.099Z,26.74
2023-05-04T16:48:33.550Z,26.85
2023-05-04T16:50:59.910Z,26.39
2023-05-04T16:53:26.358Z,26.54
2023-05-04T16:55:53.026Z,26.56
2023-05-04T16:58:19.421Z,26.38
2023-05-04T17:00:45.900Z,26.46
2023-05-04T17:03:12.408Z,26.46
2023-05-04T17:05:38.899Z,25.99
2023-05-04T17:08:05.549Z,25.60
2023-05-04T17:10:31.931Z,25.27
2023-05-04T17:12:59.701Z,24.90
2023-05-04T17:15:27.293Z,24.75
2023-05-04T17:17:55.543Z,24.64
2023-05-04T17:20:23.827Z,24.57
2023-05-04T17:22:51.660Z,24.51
2023-05-04T17:25:18.168Z,24.52
2023-05-04T17:27:44.711Z,24.28
2023-05-04T17:30:12.585Z,24.47
2023-05-04T17:32:39.003Z,24.26
2023-05-04T17:35:20.329Z,23.73
2023-05-04T17:37:51.375Z,23.45
2023-05-04T17:40:17.774Z,23.89
2023-05-04T17:42:44.208Z,23.81
2023-05-04T17:45:10.834Z,23.87
2023-05-04T17:47:37.325Z,23.58
2023-05-04T17:50:04.228Z,23.46
2023-05-04T17:52:30.681Z,23.56
2023-05-04T17:54:57.058Z,23.41
2023-05-04T17:57:23.425Z,23.22
2023-05-04T17:59:49.875Z,23.36
2023-05-04T18:02:16.502Z,23.61
2023-05-04T18:04:43.601Z,23.43
2023-05-04T18:07:09.986Z,23.11
2023-05-04T18:09:36.397Z,23.15
2023-05-04T18:12:03.240Z,23.08
2023-05-04T18:14:29.636Z,22.87
2023-05-04T18:16:56.250Z,22.55
2023-05-04T18:19:27.652Z,22.44
2023-05-04T18:21:54.162Z,22.25
2023-05-04T18:24:20.646Z,22.28
2023-05-04T18:26:48.354Z,22.31
2023-05-04T18:29:18.883Z,22.02
2023-05-04T18:31:46.087Z,22.01
2023-05-04T18:34:12.537Z,21.85
2023-05-04T18:36:38.900Z,21.96
2023-05-04T18:39:05.398Z,21.72
2023-05-04T18:41:31.864Z,21.50
2023-05-04T18:43:58.314Z,21.27
2023-05-04T18:46:25.117Z,21.10
2023-05-04T18:48:51.733Z,21.05
2023-05-04T18:51:18.107Z,21.07
2023-05-04T18:53:44.676Z,20.98
2023-05-04T18:56:11.147Z,20.87
2023-05-04T18:58:38.764Z,20.71
2023-05-04T19:01:05.934Z,20.68
2023-05-04T19:03:32.789Z,20.39
2023-05-04T19:05:59.395Z,20.57
2023-05-04T19:08:25.858Z,20.51
2023-05-04T19:10:52.306Z,20.34
2023-05-04T19:13:20.636Z,20.39
2023-05-04T19:15:47.000Z,20.26
2023-05-04T19:18:13.617Z,20.21
2023-05-04T19:20:40.050Z,20.20
2023-05-04T19:23:06.468Z,20.17
2023-05-04T19:25:35.232Z,19.94
2023-05-04T19:28:08.754Z,19.86
2023-05-04T19:30:39.435Z,19.95
2023-05-04T19:33:08.314Z,19.84
2023-05-04T19:35:35.136Z,19.66
2023-05-04T19:38:01.632Z,19.67
2023-05-04T19:40:28.203Z,19.69
2023-05-04T19:42:54.582Z,19.77
2023-05-04T19:45:20.973Z,19.69
2023-05-04T19:47:48.375Z,19.45
2023-05-04T19:50:16.368Z,19.55
2023-05-04T19:52:42.799Z,19.43
2023-05-04T19:55:09.437Z,19.54
2023-05-04T19:57:36.102Z,19.45
2023-05-04T20:00:03.294Z,19.32
2023-05-04T20:02:29.897Z,19.01
2023-05-04T20:04:56.409Z,18.86
2023-05-04T20:07:22.868Z,18.74
2023-05-04T20:09:49.251Z,18.74
2023-05-04T20:12:16.220Z,18.98
2023-05-04T20:14:43.312Z,18.92
2023-05-04T20:17:09.908Z,18.86
2023-05-04T20:19:38.302Z,18.76
2023-05-04T20:22:04.731Z,18.65
2023-05-04T20:24:31.132Z,18.64
2023-05-04T20:26:57.511Z,18.68
2023-05-04T20:29:24.215Z,18.65
2023-05-04T20:31:50.786Z,18.62
2023-05-04T20:34:19.030Z,18.57
2023-05-04T20:36:46.818Z,18.56
2023-05-04T20:39:13.499Z,18.36
2023-05-04T20:41:40.573Z,18.19
2023-05-04T20:44:07.038Z,18.40
2023-05-04T20:46:33.645Z,18.33
2023-05-04T20:49:02.679Z,18.34
2023-05-04T20:51:29.339Z,18.17
2023-05-04T20:53:55.748Z,18.09
2023-05-04T20:56:22.487Z,18.06
2023-05-04T20:58:48.912Z,18.08
2023-05-04T21:01:15.371Z,18.10
2023-05-04T21:03:41.840Z,17.92
2023-05-04T21:06:08.333Z,17.95
2023-05-04T21:08:34.741Z,17.90
2023-05-04T21:11:01.140Z,17.82
2023-05-04T21:13:27.522Z,17.75
2023-05-04T21:15:53.999Z,17.62
2023-05-04T21:18:20.425Z,17.66
2023-05-04T21:20:47.139Z,17.73
2023-05-04T21:23:13.620Z,17.59
2023-05-04T21:25:40.038Z,17.49
2023-05-04T21:28:06.520Z,17.46
2023-05-04T21:30:32.912Z,17.50
2023-05-04T21:33:00.267Z,17.36
2023-05-04T21:35:30.780Z,17.29
2023-05-04T21:37:58.834Z,17.17
2023-05-04T21:40:28.577Z,17.02
2023-05-04T21:42:54.945Z,17.04
2023-05-04T21:45:21.431Z,16.81
2023-05-04T21:47:47.855Z,16.72
2023-05-04T21:50:14.308Z,16.67
2023-05-04T21:52:40.913Z,16.52
2023-05-04T21:55:07.577Z,16.37
2023-05-04T21:57:33.952Z,16.21
2023-05-04T22:00:00.329Z,16.41
2023-05-04T22:02:26.737Z,16.38
2023-05-04T22:04:53.141Z,16.31
2023-05-04T22:07:19.523Z,16.41
2023-05-04T22:09:45.932Z,16.28
2023-05-04T22:12:12.836Z,16.26
2023-05-04T22:14:41.635Z,16.20
2023-05-04T22:17:08.825Z,16.16
2023-05-04T22:19:35.268Z,16.22
2023-05-04T22:22:01.668Z,16.32
2023-05-04T22:24:28.105Z,16.31
2023-05-04T22:26:54.519Z,16.24
2023-05-04T22:29:20.919Z,16.39
2023-05-04T22:31:48.335Z,16.38
2023-05-04T22:34:14.730Z,16.41
2023-05-04T22:36:41.302Z,16.52
2023-05-04T22:39:07.969Z,16.47
2023-05-04T22:41:34.331Z,16.50
2023-05-04T22:44:01.074Z,16.58
2023-05-04T22:46:27.487Z,16.32
2023-05-04T22:48:53.869Z,16.32
2023-05-04T22:51:20.245Z,16.27
2023-05-04T22:53:46.818Z,16.27
2023-05-04T22:56:13.262Z,16.23
2023-05-04T22:58:39.646Z,16.26
2023-05-04T23:01:10.378Z,16.26
2023-05-04T23:03:37.488Z,16.07
2023-05-04T23:06:04.955Z,15.93
2023-05-04T23:08:31.397Z,16.00
2023-05-04T23:10:57.770Z,15.94
2023-05-04T23:13:24.431Z,15.77
2023-05-04T23:15:50.850Z,15.96
2023-05-04T23:18:17.549Z,15.78
2023-05-04T23:20:44.057Z,15.91
2023-05-04T23:23:10.612Z,15.71
2023-05-04T23:25:36.984Z,15.81
2023-05-04T23:28:03.623Z,15.87
2023-05-04T23:30:30.392Z,15.81
2023-05-04T23:32:57.659Z,15.82
2023-05-04T23:35:24.091Z,15.77
2023-05-04T23:37:50.580Z,15.72
2023-05-04T23:40:16.986Z,15.63
2023-05-04T23:42:43.370Z,15.64
2023-05-04T23:45:10.206Z,15.47
2023-05-04T23:47:36.637Z,15.62
2023-05-04T23:50:03.059Z,15.66
2023-05-04T23:52:29.790Z,15.66
2023-05-04T23:54:56.197Z,15.45
2023-05-04T23:57:22.677Z,15.49
2023-05-04T23:59:49.101Z,15.52
